Aeroporto :
LOGIN :

Iscrizione | Disclaimer

   EN    FR    IT 

 










Sommario :    VFR   VFR Marginale   IFR   IFR Intensivo   IFR Molto Intensivo
Visibilità : 
Base nubi : 
>= 8 km
>= 3000ft
5 / 8 km
1000 / 3000 ft
1500m / 5 km
500 / 1000 ft
800 / 1500m
200 / 500 ft
< 800m
< 200 ft
Simboli :   Temporali  Nebbia  Neve Forte  Precipitazioni Forti  Vento > 20 kt
SIGMETs :   Varie  Temporali  Ghiacco  Turbolenza  Onda orograficha  Ceneri Vulcaniche






- Altitudine del aeroporto : 1768 ft


LEHC - Huesca Pirineos

ULTIMO METAR :
  • 230130Z AUTO 02003KT 8000 NCD 02/01 Q1034

METARs OBSOLETI :
  • 230100Z AUTO VRB02KT 9000 NCD 02/02 Q1034
  • 230030Z AUTO VRB02KT 8000 NCD 02/01 Q1034
  • 230000Z AUTO 01003KT 6000 NCD 04/03 Q1034
  • 222330Z AUTO 03001KT 6000 NCD 02/02 Q1034
  • 222300Z AUTO VRB01KT 9000 NCD 05/04 Q1034

TAF TAF LEHC
Valido dal 22 a 15 ore il 23 a 15 ore UTC


221400Z 2215/2315 VRB04KT 9999 FEW040 TX19/2313Z TN02/2306Z
PROB30
TEMPO 2302/2309 1000 BCFG



MetMap, La meteo Aeronautica in un colpo d'occhio ! - Copyright ORBIFLY Dicembre 2007 - Disclaimer

ORBIFLY MET'MAP TEAM :

Programmazione e sviluppo : Alexandra Zaïnal
Concezione : Baudouin d'Aumeries
Aiuto per la programmazione : Marc-Olivier Méhu
Supporto tecnico e logistico : Manuel Goepfert
Aiuto per la traduzione : Arnaldo La Scala

Contatto : metmap@orbifly.com




FONTI E CREDITI :

   NOAA